Time;durP1;ratioP1;P1;durP2;ratioP2;P2;SDS_P1;SDS_P2;PMS_P1;PMS_P2;Temp;Humidity;BMP_temperature;BMP_pressure;BME280_temperature;BME280_humidity;BME280_pressure;Samples;Min_cycle;Max_cycle;Signal;HPM_P1;HPM_P2
2023/05/17 08:06:44;;;;;;;13.98;2.75;;;;;;;11.28;69.92;102552.97;5109328;27;20370;-72
2023/05/17 08:09:10;;;;;;;13.40;2.70;;;;;;;11.38;69.14;102556.19;5110463;28;20097;-71
2023/05/17 08:11:36;;;;;;;12.10;2.53;;;;;;;11.48;68.14;102558.63;5092325;28;20029;-69
2023/05/17 08:14:01;;;;;;;10.98;2.35;;;;;;;11.60;65.20;102559.00;5081164;28;20103;-70
2023/05/17 08:16:26;;;;;;;14.80;2.20;;;;;;;11.71;60.09;102572.06;5140756;27;20111;-69
2023/05/17 08:18:52;;;;;;;10.88;2.10;;;;;;;11.81;60.91;102558.19;5108702;28;20031;-69
2023/05/17 08:21:17;;;;;;;10.30;2.97;;;;;;;11.84;59.68;102558.66;5109429;28;20089;-71
2023/05/17 08:23:42;;;;;;;11.95;2.95;;;;;;;11.84;58.44;102572.22;5107141;28;20520;-69
2023/05/17 08:26:08;;;;;;;14.65;2.63;;;;;;;11.95;60.73;102567.34;5098015;28;20032;-69
2023/05/17 08:28:33;;;;;;;13.35;2.40;;;;;;;12.03;58.85;102578.06;5089205;28;20028;-70
2023/05/17 08:30:58;;;;;;;12.25;3.13;;;;;;;12.02;59.20;102565.56;5088865;28;20023;-71
2023/05/17 08:33:24;;;;;;;12.82;2.90;;;;;;;12.07;60.87;102565.81;5097046;28;20065;-70
2023/05/17 08:35:51;;;;;;;12.70;2.80;;;;;;;12.10;58.01;102570.84;5108643;28;20038;-73
2023/05/17 08:38:17;;;;;;;10.35;2.83;;;;;;;12.13;58.28;102566.91;5109081;28;20035;-68
2023/05/17 08:40:42;;;;;;;12.20;3.00;;;;;;;12.12;56.04;102562.50;5100873;28;20024;-69
2023/05/17 08:43:11;;;;;;;9.27;2.45;;;;;;;12.14;56.84;102569.44;5096005;28;20508;-69
2023/05/17 08:45:37;;;;;;;13.68;3.63;;;;;;;12.14;54.67;102569.44;5110058;28;20027;-71
2023/05/17 08:48:04;;;;;;;12.43;2.78;;;;;;;12.09;55.47;102571.88;5110090;28;20023;-69
2023/05/17 08:50:30;;;;;;;11.82;3.03;;;;;;;12.12;55.26;102571.47;5109241;28;20351;-68
2023/05/17 08:52:55;;;;;;;12.57;2.53;;;;;;;12.15;54.86;102570.25;5107123;28;20024;-68
2023/05/17 08:55:20;;;;;;;13.15;2.95;;;;;;;12.27;57.68;102574.13;5099865;28;20032;-68
2023/05/17 08:57:47;;;;;;;11.63;3.47;;;;;;;12.34;57.57;102588.63;5089344;28;20020;-68
2023/05/17 09:00:18;;;;;;;11.23;2.90;;;;;;;12.36;53.83;102580.28;5088216;28;20028;-67
2023/05/17 09:02:43;;;;;;;12.23;2.72;;;;;;;12.38;53.01;102584.50;5055161;27;20087;-68
2023/05/17 09:05:09;;;;;;;12.73;2.80;;;;;;;12.39;53.42;102580.75;5044615;28;20388;-67
2023/05/17 09:07:35;;;;;;;11.68;2.90;;;;;;;12.41;55.95;102575.97;5044525;28;20025;-67
2023/05/17 09:10:04;;;;;;;10.70;2.83;;;;;;;12.45;54.95;102592.69;5049106;28;20032;-68
2023/05/17 09:12:33;;;;;;;11.48;3.22;;;;;;;12.41;54.61;102577.84;5048491;28;20412;-68
2023/05/17 09:15:12;;;;;;;12.32;3.03;;;;;;;12.45;56.49;102581.81;5048229;28;20522;-68
2023/05/17 09:17:39;;;;;;;12.38;3.13;;;;;;;12.44;53.22;102584.75;5035002;28;20029;-69
2023/05/17 09:20:05;;;;;;;11.30;2.72;;;;;;;12.45;54.88;102573.69;5045494;28;20087;-68
2023/05/17 09:22:31;;;;;;;8.82;2.47;;;;;;;12.31;52.65;102574.63;5049107;28;20112;-74
2023/05/17 09:24:58;;;;;;;14.02;3.00;;;;;;;12.36;54.36;102580.28;5034019;28;20350;-70
2023/05/17 09:27:24;;;;;;;9.65;2.90;;;;;;;12.67;56.71;102577.22;5034789;28;20445;-69
2023/05/17 09:29:49;;;;;;;11.55;2.88;;;;;;;12.67;54.27;102573.69;5039354;28;20044;-69
2023/05/17 09:32:17;;;;;;;15.27;3.13;;;;;;;12.82;54.40;102577.13;5038955;28;20444;-71
2023/05/17 09:34:44;;;;;;;12.23;2.80;;;;;;;12.66;52.61;102586.41;5029957;28;20369;-74
2023/05/17 09:37:17;;;;;;;12.13;2.70;;;;;;;12.73;53.66;102583.75;5050269;28;20036;-68
2023/05/17 09:39:44;;;;;;;9.52;2.67;;;;;;;12.75;52.61;102587.94;5034056;28;20476;-69
2023/05/17 09:42:11;;;;;;;10.38;2.92;;;;;;;12.83;53.70;102570.66;5035009;28;20049;-69
2023/05/17 09:44:51;;;;;;;10.27;2.50;;;;;;;12.94;53.08;102577.44;5047736;28;20029;-68
2023/05/17 09:47:23;;;;;;;10.70;2.83;;;;;;;12.85;52.53;102567.75;5054942;28;20036;-68
2023/05/17 09:49:49;;;;;;;11.20;2.80;;;;;;;12.91;53.36;102570.50;5054795;28;20048;-68
2023/05/17 09:52:19;;;;;;;11.98;3.05;;;;;;;12.85;54.33;102578.63;5053248;28;20029;-70
2023/05/17 09:54:52;;;;;;;15.13;3.17;;;;;;;12.74;54.37;102589.00;5041763;28;20148;-69
2023/05/17 09:57:18;;;;;;;14.00;3.03;;;;;;;12.83;53.83;102572.53;5046748;28;20048;-69
2023/05/17 09:59:45;;;;;;;11.20;2.83;;;;;;;12.96;51.96;102578.06;5033696;28;20460;-69
2023/05/17 10:02:21;;;;;;;7.50;2.63;;;;;;;12.97;51.19;102581.59;5030261;28;20091;-69
2023/05/17 10:04:55;;;;;;;11.23;2.50;;;;;;;12.94;52.56;102572.00;5032645;28;20071;-69
2023/05/17 10:07:24;;;;;;;10.38;2.60;;;;;;;13.13;53.72;102567.72;5032659;28;21336;-70
2023/05/17 10:09:50;;;;;;;10.80;2.80;;;;;;;13.26;52.50;102565.06;5030918;28;20035;-69
2023/05/17 10:12:18;;;;;;;13.52;2.78;;;;;;;13.43;52.94;102572.91;5032126;28;20049;-68
2023/05/17 10:14:44;;;;;;;13.38;2.70;;;;;;;13.48;53.42;102573.16;5032721;28;20028;-68
2023/05/17 10:17:10;;;;;;;10.25;2.70;;;;;;;13.56;52.52;102573.00;5032113;28;20480;-69
2023/05/17 10:19:36;;;;;;;13.20;3.03;;;;;;;13.51;52.36;102580.91;5032896;28;20112;-69
2023/05/17 10:22:02;;;;;;;9.32;2.47;;;;;;;13.52;52.37;102576.31;5033046;28;20760;-68
2023/05/17 10:24:29;;;;;;;9.30;2.58;;;;;;;13.67;51.18;102577.00;5028768;28;20037;-68
2023/05/17 10:26:56;;;;;;;10.98;2.85;;;;;;;13.79;52.76;102578.09;5029658;28;20053;-69
2023/05/17 10:29:22;;;;;;;11.82;2.78;;;;;;;13.90;51.01;102575.81;5029092;28;20130;-69
2023/05/17 10:31:49;;;;;;;12.07;2.45;;;;;;;13.80;50.99;102578.94;5032862;28;20064;-69
2023/05/17 10:34:16;;;;;;;10.82;2.90;;;;;;;13.82;51.85;102579.56;5033910;28;20457;-69
2023/05/17 10:36:45;;;;;;;9.10;2.72;;;;;;;13.73;51.58;102572.63;5033950;28;20492;-69
2023/05/17 10:39:11;;;;;;;9.38;2.22;;;;;;;13.59;51.65;102574.47;5044139;28;20052;-68
2023/05/17 10:41:39;;;;;;;10.15;2.67;;;;;;;13.55;51.61;102573.19;5053582;28;20517;-69
2023/05/17 10:44:07;;;;;;;10.60;2.67;;;;;;;13.59;51.53;102571.75;5053768;28;20025;-69
2023/05/17 10:46:35;;;;;;;11.80;2.50;;;;;;;13.59;50.79;102567.13;5033150;28;20079;-69
2023/05/17 10:49:00;;;;;;;12.85;2.58;;;;;;;13.68;50.86;102564.22;5032919;28;20029;-69
2023/05/17 10:51:30;;;;;;;9.43;2.53;;;;;;;13.83;49.12;102565.75;5033407;28;20436;-69
2023/05/17 10:54:01;;;;;;;10.68;2.50;;;;;;;13.89;50.10;102561.38;5033559;28;20365;-72
2023/05/17 10:56:27;;;;;;;;;;;;;;;14.05;52.81;102562.03;5033809;28;20021;-69
2023/05/17 10:59:13;;;;;;;6.63;2.28;;;;;;;14.24;49.49;102563.13;5042322;28;19916;-69
2023/05/17 11:02:02;;;;;;;11.05;2.70;;;;;;;14.15;48.29;102560.59;5033427;28;20052;-69
2023/05/17 11:04:41;;;;;;;7.07;2.33;;;;;;;14.14;48.14;102547.19;5032664;28;20373;-68
2023/05/17 11:07:16;;;;;;;6.55;2.10;;;;;;;14.18;48.31;102548.47;5033451;28;20029;-69
2023/05/17 11:09:48;;;;;;;19.67;2.58;;;;;;;14.12;47.09;102552.00;5032034;28;20133;-69
2023/05/17 11:12:15;;;;;;;11.20;2.65;;;;;;;14.22;47.76;102540.69;5033352;28;20021;-68
2023/05/17 11:14:53;;;;;;;6.32;2.03;;;;;;;14.48;49.34;102542.63;5031718;28;20064;-69
2023/05/17 11:17:45;;;;;;;9.30;2.20;;;;;;;14.64;49.71;102553.09;5033043;28;20079;-70
2023/05/17 11:20:14;;;;;;;7.72;2.28;;;;;;;14.43;44.18;102550.56;5035401;28;20055;-69
2023/05/17 11:22:54;;;;;;;7.72;2.30;;;;;;;14.42;44.58;102557.03;5051575;28;20036;-68
2023/05/17 11:25:20;;;;;;;12.30;2.70;;;;;;;14.32;46.37;102554.75;5052550;28;20021;-70
2023/05/17 11:27:47;;;;;;;7.75;2.50;;;;;;;14.25;46.37;102548.44;5051756;28;20027;-70
2023/05/17 11:30:29;;;;;;;9.98;2.42;;;;;;;14.31;47.20;102539.44;5040306;28;20036;-69
2023/05/17 11:33:00;;;;;;;14.55;2.80;;;;;;;14.49;48.52;102533.38;5032891;28;20025;-70
2023/05/17 11:35:27;;;;;;;8.57;2.25;;;;;;;14.55;47.31;102551.59;5032781;28;20033;-70
2023/05/17 11:37:55;;;;;;;7.38;2.30;;;;;;;14.29;45.69;102556.00;5032920;28;20052;-68
2023/05/17 11:40:26;;;;;;;9.07;2.33;;;;;;;14.35;46.74;102546.16;5032162;28;20513;-72
2023/05/17 11:43:11;;;;;;;9.05;2.20;;;;;;;14.42;47.39;102537.97;5049870;28;20032;-73
2023/05/17 11:45:56;;;;;;;7.53;2.28;;;;;;;14.52;46.46;102539.25;5030754;28;20057;-70
2023/05/17 11:48:23;;;;;;;9.25;2.20;;;;;;;14.68;45.55;102538.00;5019193;28;20041;-69
2023/05/17 11:50:50;;;;;;;10.48;2.40;;;;;;;14.75;45.87;102553.50;5030330;28;20357;-70
2023/05/17 11:53:17;;;;;;;8.75;2.42;;;;;;;14.93;46.95;102534.63;5031476;28;20121;-70
2023/05/17 11:55:46;;;;;;;10.02;2.33;;;;;;;14.89;45.66;102536.09;5029356;28;20040;-70
2023/05/17 11:58:14;;;;;;;9.30;2.00;;;;;;;15.03;43.57;102545.09;5031541;28;20037;-70
2023/05/17 12:00:40;;;;;;;7.90;2.05;;;;;;;15.17;44.39;102537.69;5028142;28;20026;-70
2023/05/17 12:03:25;;;;;;;8.52;2.58;;;;;;;15.32;45.40;102537.44;5029993;28;20048;-70
2023/05/17 12:06:03;;;;;;;8.77;2.00;;;;;;;15.50;46.29;102539.47;5029623;28;20068;-70
2023/05/17 12:08:29;;;;;;;5.80;2.08;;;;;;;15.70;42.91;102533.91;5033439;28;20029;-70
2023/05/17 12:10:57;;;;;;;7.75;2.17;;;;;;;15.67;42.13;102539.81;5031682;28;20022;-70
2023/05/17 12:13:23;;;;;;;5.57;1.83;;;;;;;15.57;41.79;102534.81;5029858;28;20203;-70
2023/05/17 12:16:05;;;;;;;12.65;2.53;;;;;;;15.47;43.27;102520.81;5034346;28;20108;-69
2023/05/17 12:18:38;;;;;;;6.20;2.10;;;;;;;15.59;43.08;102527.25;5052165;28;20025;-70
2023/05/17 12:21:04;;;;;;;9.18;2.55;;;;;;;15.41;41.90;102530.69;5052355;28;20035;-69
2023/05/17 12:23:39;;;;;;;9.85;2.10;;;;;;;15.44;42.81;102527.53;5052426;28;20344;-70
2023/05/17 12:26:07;;;;;;;8.75;2.05;;;;;;;15.53;42.38;102536.31;5052196;28;20021;-70
2023/05/17 12:28:34;;;;;;;5.03;1.88;;;;;;;15.60;41.80;102528.94;5050400;28;20418;-70
2023/05/17 12:31:02;;;;;;;10.68;2.20;;;;;;;15.66;43.14;102524.50;5041396;28;20067;-70
2023/05/17 12:33:39;;;;;;;10.38;2.22;;;;;;;15.87;44.54;102512.44;5032141;28;20021;-71
2023/05/17 12:36:06;;;;;;;8.07;1.88;;;;;;;15.93;43.04;102522.47;5032348;28;20108;-71
2023/05/17 12:38:32;;;;;;;8.15;2.30;;;;;;;16.00;43.75;102523.25;5031997;28;20029;-72
2023/05/17 12:41:00;;;;;;;8.18;2.38;;;;;;;15.88;43.25;102530.47;5032315;28;20032;-70
2023/05/17 12:43:27;;;;;;;8.65;2.22;;;;;;;16.08;43.69;102531.19;5039633;28;20027;-69
2023/05/17 12:45:52;;;;;;;6.10;1.85;;;;;;;15.98;42.05;102524.56;5047675;28;20112;-69
2023/05/17 12:48:18;;;;;;;8.88;2.20;;;;;;;16.03;42.42;102522.81;5045229;28;20104;-69
2023/05/17 12:50:47;;;;;;;8.77;2.00;;;;;;;16.22;43.26;102523.72;5031965;28;20025;-69
2023/05/17 12:53:13;;;;;;;9.30;2.22;;;;;;;16.35;43.20;102528.25;5044354;28;20028;-68
2023/05/17 12:55:38;;;;;;;6.75;2.17;;;;;;;16.23;41.52;102528.16;5055370;28;20024;-69
2023/05/17 12:58:04;;;;;;;7.75;2.33;;;;;;;16.27;42.23;102542.19;5045278;28;20025;-69
2023/05/17 13:00:29;;;;;;;9.02;2.10;;;;;;;16.20;41.21;102535.94;5020004;28;20488;-68
2023/05/17 13:02:55;;;;;;;7.38;1.85;;;;;;;16.18;41.21;102532.59;5034193;28;20037;-73
2023/05/17 13:05:20;;;;;;;9.88;2.53;;;;;;;16.23;41.78;102522.69;5035283;28;20052;-70
2023/05/17 13:07:46;;;;;;;13.13;2.35;;;;;;;16.23;42.12;102527.28;5042736;28;20056;-70
2023/05/17 13:10:25;;;;;;;7.90;2.15;;;;;;;16.30;41.82;102519.88;5055560;28;20174;-70
2023/05/17 13:12:55;;;;;;;9.68;2.15;;;;;;;16.44;39.93;102518.72;5055550;28;20029;-69
2023/05/17 13:15:25;;;;;;;11.15;2.10;;;;;;;16.55;38.97;102524.53;5054176;28;20459;-70
2023/05/17 13:17:50;;;;;;;6.55;2.05;;;;;;;16.32;38.62;102520.50;5046408;28;20040;-70
2023/05/17 13:20:15;;;;;;;7.40;2.10;;;;;;;16.18;37.75;102518.94;5033713;28;20026;-73
2023/05/17 13:22:48;;;;;;;7.47;2.05;;;;;;;16.34;39.82;102517.56;5033419;28;20108;-70
2023/05/17 13:25:13;;;;;;;7.85;1.95;;;;;;;16.47;38.09;102517.41;5051251;28;20056;-71
2023/05/17 13:27:45;;;;;;;8.20;1.70;;;;;;;16.56;37.64;102512.50;5055350;28;20060;-70
2023/05/17 13:30:11;;;;;;;7.03;1.73;;;;;;;16.54;37.13;102517.38;5055137;28;20031;-70
2023/05/17 13:32:37;;;;;;;7.80;1.70;;;;;;;16.52;37.30;102508.59;5054927;28;20115;-70
2023/05/17 13:35:03;;;;;;;7.95;2.30;;;;;;;16.51;38.77;102513.19;5053937;28;20491;-70
2023/05/17 13:37:28;;;;;;;8.02;2.42;;;;;;;16.45;38.28;102509.44;5049907;28;20063;-70
2023/05/17 13:39:54;;;;;;;8.60;2.00;;;;;;;16.51;38.52;102499.53;5055059;28;20025;-70
2023/05/17 13:42:21;;;;;;;5.72;1.85;;;;;;;16.60;37.25;102505.53;5055052;28;20028;-70
2023/05/17 13:44:46;;;;;;;8.27;2.20;;;;;;;16.46;36.72;102502.09;5054583;28;20028;-70
2023/05/17 13:47:11;;;;;;;5.13;1.90;;;;;;;16.58;38.16;102511.25;5054918;28;20021;-70
2023/05/17 13:49:37;;;;;;;6.03;2.08;;;;;;;16.67;37.60;102500.84;5054376;28;20581;-70
2023/05/17 13:52:02;;;;;;;10.75;2.70;;;;;;;16.85;38.41;102502.78;5041084;28;20041;-70
2023/05/17 13:54:28;;;;;;;7.32;2.22;;;;;;;16.82;36.38;102505.97;5033345;28;20461;-70
2023/05/17 13:56:54;;;;;;;9.07;2.00;;;;;;;16.99;37.18;102503.50;5034452;28;20024;-70
2023/05/17 13:59:19;;;;;;;6.15;2.20;;;;;;;17.00;35.47;102506.00;5034767;28;20025;-70
2023/05/17 14:01:45;;;;;;;6.07;2.28;;;;;;;16.92;35.12;102514.47;5030972;28;20041;-70
2023/05/17 14:04:10;;;;;;;8.07;2.13;;;;;;;16.80;36.16;102517.13;5034354;28;20109;-69
2023/05/17 14:06:37;;;;;;;6.10;2.15;;;;;;;16.79;36.59;102515.44;5033887;28;20037;-69
2023/05/17 14:09:02;;;;;;;8.25;2.28;;;;;;;16.87;38.11;102513.53;5037000;28;20029;-69
2023/05/17 14:11:28;;;;;;;5.45;1.90;;;;;;;16.91;37.00;102518.31;5034563;28;20413;-69
2023/05/17 14:13:53;;;;;;;7.65;2.28;;;;;;;17.04;37.04;102522.78;5034268;28;20076;-69
2023/05/17 14:16:18;;;;;;;7.95;2.17;;;;;;;17.02;36.58;102519.44;5033571;28;20041;-69
2023/05/17 14:18:45;;;;;;;13.05;2.63;;;;;;;17.06;36.29;102517.06;5033912;28;20017;-69
2023/05/17 14:21:10;;;;;;;10.85;2.63;;;;;;;16.91;35.86;102506.50;5034156;28;20369;-69
2023/05/17 14:23:36;;;;;;;11.40;2.50;;;;;;;17.01;36.36;102517.75;5033848;28;20028;-69
2023/05/17 14:26:05;;;;;;;8.65;2.30;;;;;;;16.95;35.85;102514.06;5032615;28;20029;-69
2023/05/17 14:28:31;;;;;;;8.40;2.20;;;;;;;17.08;35.97;102514.97;5032462;28;20104;-69
2023/05/17 14:30:56;;;;;;;7.30;2.33;;;;;;;16.90;34.96;102521.25;5034161;28;20122;-69
2023/05/17 14:33:21;;;;;;;7.93;2.20;;;;;;;17.02;36.29;102513.97;5033839;28;20456;-73
2023/05/17 14:35:47;;;;;;;8.07;2.47;;;;;;;16.93;35.16;102515.34;5033586;28;20029;-69
2023/05/17 14:38:12;;;;;;;5.45;1.80;;;;;;;16.86;36.31;102520.84;5030762;28;20027;-70
2023/05/17 14:40:37;;;;;;;10.82;2.17;;;;;;;16.86;36.49;102512.63;5039962;28;20535;-69
2023/05/17 14:43:02;;;;;;;10.65;2.38;;;;;;;16.76;36.32;102504.97;5051196;28;20029;-68
2023/05/17 14:45:28;;;;;;;12.35;3.10;;;;;;;16.91;36.41;102509.25;5038136;28;20504;-69
2023/05/17 14:47:53;;;;;;;10.15;3.33;;;;;;;17.15;36.59;102507.50;5032247;28;20021;-68
2023/05/17 14:50:18;;;;;;;12.57;2.50;;;;;;;17.30;36.23;102527.13;5038806;28;20345;-69
2023/05/17 14:52:44;;;;;;;9.20;2.53;;;;;;;17.14;34.74;102511.31;5053280;28;20364;-68
2023/05/17 14:55:09;;;;;;;6.32;1.88;;;;;;;17.35;35.87;102519.03;5042080;28;20063;-69
2023/05/17 14:57:34;;;;;;;10.75;2.60;;;;;;;17.36;36.34;102519.88;5031682;28;20025;-69
2023/05/17 15:00:00;;;;;;;9.65;2.53;;;;;;;17.45;34.95;102523.13;5031146;28;20040;-68
2023/05/17 15:02:25;;;;;;;6.97;2.40;;;;;;;17.53;34.86;102515.44;5034043;28;20057;-68
2023/05/17 15:04:51;;;;;;;9.93;2.90;;;;;;;17.64;35.51;102521.22;5023287;28;20849;-70
2023/05/17 15:07:16;;;;;;;10.05;2.53;;;;;;;17.83;35.07;102525.56;5033535;28;20075;-69
2023/05/17 15:09:43;;;;;;;8.98;2.35;;;;;;;17.73;33.85;102521.72;5032133;28;20480;-68
2023/05/17 15:12:12;;;;;;;12.35;2.83;;;;;;;17.98;35.25;102524.31;5039412;28;20120;-68
2023/05/17 15:14:37;;;;;;;8.50;2.28;;;;;;;18.26;33.04;102522.84;5030757;28;20051;-67
2023/05/17 15:17:03;;;;;;;10.38;3.20;;;;;;;18.72;31.42;102524.78;5033249;28;20364;-68
2023/05/17 15:19:29;;;;;;;9.00;2.22;;;;;;;19.00;30.87;102528.72;5031156;28;20033;-68
2023/05/17 15:21:54;;;;;;;7.80;2.22;;;;;;;19.42;30.64;102522.16;5031725;28;20033;-69
2023/05/17 15:24:19;;;;;;;7.53;2.70;;;;;;;19.84;30.53;102521.91;5019562;28;20022;-68
2023/05/17 15:26:45;;;;;;;9.75;2.33;;;;;;;20.15;30.48;102522.44;5032877;28;20130;-67
2023/05/17 15:29:10;;;;;;;7.70;2.03;;;;;;;20.24;29.69;102520.94;5022037;28;20559;-69
2023/05/17 15:31:36;;;;;;;7.13;2.22;;;;;;;20.04;30.05;102515.09;5013377;28;20032;-69
2023/05/17 15:34:01;;;;;;;11.52;2.50;;;;;;;20.29;30.40;102512.78;5031860;28;20033;-69
2023/05/17 15:36:27;;;;;;;7.53;2.20;;;;;;;20.47;29.95;102519.09;5019043;28;20029;-69
2023/05/17 15:38:52;;;;;;;9.20;2.53;;;;;;;20.57;28.92;102518.44;5012966;28;20030;-70
2023/05/17 15:41:20;;;;;;;9.27;2.40;;;;;;;20.74;28.72;102512.94;5013235;28;20108;-69
2023/05/17 15:43:45;;;;;;;8.70;2.25;;;;;;;20.81;29.33;102514.41;5018003;28;20063;-69
2023/05/17 15:46:11;;;;;;;9.05;2.25;;;;;;;20.73;28.98;102511.25;5043622;28;20040;-69
2023/05/17 15:48:36;;;;;;;15.90;5.50;;;;;;;20.47;28.30;102519.94;5032625;28;20026;-69
2023/05/17 15:51:02;;;;;;;5.28;2.25;;;;;;;20.29;27.82;102512.78;5031536;28;20029;-70
2023/05/17 15:53:28;;;;;;;11.77;3.83;;;;;;;19.97;26.83;102527.09;5029708;28;20079;-70
2023/05/17 15:55:54;;;;;;;6.05;2.20;;;;;;;19.65;26.92;102516.56;5020153;28;20071;-69
2023/05/17 15:58:22;;;;;;;7.97;2.08;;;;;;;19.47;27.06;102514.88;5032832;28;20464;-69
2023/05/17 16:00:47;;;;;;;9.52;2.70;;;;;;;19.23;28.09;102505.84;5029080;28;20049;-70
